Hodgeville, Canada
Current Conditions -  °F | °C
As of 1:00 AM on Friday 31 Oct 2014 (Local Time) from CYYN Reporting Station
Overcast Overcast  
Wind Chill: 17°   Ceiling: 700
Heat Index: 32°   Visibility: 9mi
Dew Point: 30°   Wind: 32mph
Humidity: 93%   Direction: 150°SSE
Pressure: 30.14"   Gusts: 41mph
Location:  50.12°N, 106.98°W
Report Text: CYYN 310700Z AUTO 15028G36KT 9SM OVC007 00/M01 A3014 RMK PRESFR SLP238
Loading
Personal Weather Stations






























Interactive Weather Map New forecast layout! Learn more

10-Day Weather Forecast

Advertisements
Track Severe Weather on mobile